Time;durP1;ratioP1;P1;durP2;ratioP2;P2;SDS_P1;SDS_P2;PMS_P1;PMS_P2;Temp;Humidity;BMP_temperature;BMP_pressure;BME280_temperature;BME280_humidity;BME280_pressure;Samples;Min_cycle;Max_cycle;Signal;HPM_P1;HPM_P2
2021/05/21 00:01:05;;;;;;;2.20;1.50;;;;;;;;;;5084982;28;20444;-78
2021/05/21 00:03:32;;;;;;;2.20;1.40;;;;;;;;;;5086551;28;20483;-79
2021/05/21 00:05:59;;;;;;;2.00;1.33;;;;;;;;;;5087966;28;20455;-81
2021/05/21 00:08:28;;;;;;;2.07;1.47;;;;;;;;;;5088608;28;20450;-79
2021/05/21 00:10:54;;;;;;;2.30;1.40;;;;;;;;;;5090953;28;20494;-81
2021/05/21 00:13:21;;;;;;;1.70;1.50;;;;;;;;;;5091429;28;20439;-76
2021/05/21 00:15:48;;;;;;;3.43;1.60;;;;;;;;;;5094040;28;20467;-79
2021/05/21 00:18:15;;;;;;;2.47;1.20;;;;;;;;;;5094034;28;20448;-78
2021/05/21 00:20:41;;;;;;;1.70;1.40;;;;;;;;;;5093923;28;20446;-78
2021/05/21 00:23:09;;;;;;;2.10;1.50;;;;;;;;;;5087959;28;20976;-79
2021/05/21 00:25:36;;;;;;;2.70;1.30;;;;;;;;;;5089192;28;20588;-77
2021/05/21 00:28:03;;;;;;;1.60;1.30;;;;;;;;;;5091660;28;20987;-80
2021/05/21 00:30:30;;;;;;;2.90;1.27;;;;;;;;;;5091522;28;20504;-77
2021/05/21 00:32:57;;;;;;;1.37;1.20;;;;;;;;;;5091634;28;20936;-80
2021/05/21 00:35:23;;;;;;;2.40;1.57;;;;;;;;;;5098593;28;20468;-78
2021/05/21 00:37:50;;;;;;;1.50;1.40;;;;;;;;;;5094023;28;20812;-77
2021/05/21 00:40:18;;;;;;;2.30;1.30;;;;;;;;;;5093846;28;21129;-79
2021/05/21 00:42:45;;;;;;;1.53;1.20;;;;;;;;;;5093340;28;20925;-79
2021/05/21 00:45:12;;;;;;;1.33;1.20;;;;;;;;;;5088806;28;20483;-79
2021/05/21 00:47:39;;;;;;;1.97;1.40;;;;;;;;;;5088344;28;20428;-78
2021/05/21 00:50:06;;;;;;;1.70;1.20;;;;;;;;;;5090844;28;20442;-79
2021/05/21 00:52:33;;;;;;;2.27;1.30;;;;;;;;;;5090894;28;20493;-79
2021/05/21 00:55:00;;;;;;;2.57;1.30;;;;;;;;;;5091625;28;21025;-79
2021/05/21 00:57:28;;;;;;;2.13;1.43;;;;;;;;;;5101398;28;20458;-80
2021/05/21 00:59:55;;;;;;;1.70;1.30;;;;;;;;;;5113631;28;20439;-78
2021/05/21 01:02:22;;;;;;;1.67;1.53;;;;;;;;;;5113216;28;20463;-78
2021/05/21 01:04:49;;;;;;;3.23;1.40;;;;;;;;;;5113454;28;20486;-81
2021/05/21 01:07:15;;;;;;;1.87;1.50;;;;;;;;;;5097163;28;20932;-78
2021/05/21 01:09:42;;;;;;;2.90;1.40;;;;;;;;;;5087289;28;20449;-77
2021/05/21 01:12:09;;;;;;;4.30;1.30;;;;;;;;;;5090228;28;20442;-79
2021/05/21 01:14:46;;;;;;;4.77;1.50;;;;;;;;;;5089402;28;20463;-81
2021/05/21 01:17:13;;;;;;;2.73;1.30;;;;;;;;;;5090261;28;20469;-81
2021/05/21 01:19:40;;;;;;;2.27;1.70;;;;;;;;;;5097276;28;20507;-79
2021/05/21 01:22:08;;;;;;;4.33;1.60;;;;;;;;;;5107754;28;20454;-78
2021/05/21 01:24:35;;;;;;;2.50;1.53;;;;;;;;;;5092751;28;20494;-78
2021/05/21 01:27:02;;;;;;;2.17;1.53;;;;;;;;;;5093203;28;20439;-76
2021/05/21 01:29:29;;;;;;;2.30;1.60;;;;;;;;;;5090207;28;20450;-79
2021/05/21 01:31:56;;;;;;;6.10;1.60;;;;;;;;;;5087449;28;20523;-78
2021/05/21 01:34:23;;;;;;;3.27;1.60;;;;;;;;;;5089382;28;20481;-79
2021/05/21 01:36:50;;;;;;;2.87;1.50;;;;;;;;;;5090375;28;21059;-81
2021/05/21 01:39:18;;;;;;;2.13;1.23;;;;;;;;;;5090132;28;20447;-78
2021/05/21 01:41:45;;;;;;;2.30;1.40;;;;;;;;;;5091237;28;20448;-78
2021/05/21 01:44:12;;;;;;;2.67;1.50;;;;;;;;;;5112557;28;20490;-77
2021/05/21 01:46:40;;;;;;;3.17;1.60;;;;;;;;;;5111762;28;20439;-80
2021/05/21 01:49:07;;;;;;;1.40;1.30;;;;;;;;;;5112781;28;20446;-78
2021/05/21 01:51:34;;;;;;;4.47;1.60;;;;;;;;;;5091928;28;20454;-79
2021/05/21 01:54:15;;;;;;;2.33;1.70;;;;;;;;;;5086229;28;20454;-79
2021/05/21 01:56:47;;;;;;;3.13;1.73;;;;;;;;;;5087241;28;20447;-78
2021/05/21 01:59:14;;;;;;;2.20;1.20;;;;;;;;;;5090044;28;20488;-78
2021/05/21 02:01:40;;;;;;;5.33;1.40;;;;;;;;;;5090072;28;20446;-76
2021/05/21 02:04:07;;;;;;;3.07;2.00;;;;;;;;;;5089853;28;20498;-79
2021/05/21 02:06:35;;;;;;;2.27;1.20;;;;;;;;;;5110539;28;20453;-80
2021/05/21 02:09:02;;;;;;;2.50;1.20;;;;;;;;;;5112354;28;20791;-79
2021/05/21 02:11:29;;;;;;;1.50;1.20;;;;;;;;;;5092852;28;20446;-79
2021/05/21 02:13:56;;;;;;;4.83;1.40;;;;;;;;;;5091708;28;20857;-79
2021/05/21 02:16:23;;;;;;;2.97;1.40;;;;;;;;;;5086326;28;20427;-78
2021/05/21 02:18:50;;;;;;;1.30;1.20;;;;;;;;;;5087232;28;20442;-80
2021/05/21 02:21:17;;;;;;;1.40;1.17;;;;;;;;;;5089161;28;20439;-79
2021/05/21 02:23:44;;;;;;;2.80;1.30;;;;;;;;;;5087807;28;20483;-80
2021/05/21 02:26:11;;;;;;;5.10;1.27;;;;;;;;;;5089502;28;20525;-78
2021/05/21 02:28:37;;;;;;;1.77;1.27;;;;;;;;;;5090856;28;20516;-79
2021/05/21 02:31:05;;;;;;;1.53;1.37;;;;;;;;;;5091289;28;20447;-81
2021/05/21 02:33:32;;;;;;;6.00;1.13;;;;;;;;;;5091066;28;20800;-79
2021/05/21 02:35:59;;;;;;;2.70;1.50;;;;;;;;;;5091361;28;20459;-79
2021/05/21 02:38:26;;;;;;;4.70;1.40;;;;;;;;;;5087019;28;20463;-79
2021/05/21 02:40:52;;;;;;;3.13;1.40;;;;;;;;;;5086099;28;20439;-80
2021/05/21 02:43:19;;;;;;;1.60;1.23;;;;;;;;;;5088602;28;20828;-78
2021/05/21 02:45:46;;;;;;;3.77;1.40;;;;;;;;;;5088910;28;20463;-81
2021/05/21 02:48:14;;;;;;;1.30;1.20;;;;;;;;;;5089534;28;20436;-80
2021/05/21 02:50:42;;;;;;;1.53;1.40;;;;;;;;;;5098554;28;20511;-80
2021/05/21 02:53:09;;;;;;;1.50;1.40;;;;;;;;;;5111537;28;20438;-78
2021/05/21 02:55:36;;;;;;;1.60;1.50;;;;;;;;;;5111545;28;20462;-78
2021/05/21 02:58:03;;;;;;;1.73;1.40;;;;;;;;;;5111911;28;20442;-78
2021/05/21 03:00:30;;;;;;;2.27;1.60;;;;;;;;;;5098067;28;20447;-80
2021/05/21 03:02:57;;;;;;;2.00;1.33;;;;;;;;;;5083916;28;20819;-80
2021/05/21 03:05:25;;;;;;;1.43;1.20;;;;;;;;;;5088067;28;20483;-78
2021/05/21 03:07:52;;;;;;;2.10;1.17;;;;;;;;;;5088866;28;20956;-78
2021/05/21 03:10:19;;;;;;;2.70;1.33;;;;;;;;;;5088519;28;20840;-78
2021/05/21 03:12:46;;;;;;;1.77;1.40;;;;;;;;;;5093364;28;21018;-78
2021/05/21 03:15:13;;;;;;;1.70;1.33;;;;;;;;;;5111398;28;20465;-78
2021/05/21 03:17:40;;;;;;;2.33;1.47;;;;;;;;;;5111162;28;20445;-78
2021/05/21 03:20:07;;;;;;;1.47;1.23;;;;;;;;;;5105526;28;20439;-77
2021/05/21 03:22:35;;;;;;;1.90;1.40;;;;;;;;;;5087616;28;20455;-79
2021/05/21 03:25:03;;;;;;;2.87;1.70;;;;;;;;;;5077273;28;20495;-79
2021/05/21 03:27:30;;;;;;;2.00;1.53;;;;;;;;;;5087457;28;20959;-79
2021/05/21 03:29:57;;;;;;;4.60;2.00;;;;;;;;;;5088308;28;20442;-80
2021/05/21 03:32:24;;;;;;;2.30;1.67;;;;;;;;;;5088670;28;20884;-77
2021/05/21 03:34:51;;;;;;;4.10;1.80;;;;;;;;;;5089164;28;20520;-79
2021/05/21 03:37:17;;;;;;;4.07;2.03;;;;;;;;;;5108831;28;20918;-79
2021/05/21 03:39:45;;;;;;;1.93;1.70;;;;;;;;;;5111221;28;20828;-78
2021/05/21 03:42:13;;;;;;;6.83;2.17;;;;;;;;;;5090026;28;20442;-79
2021/05/21 03:44:39;;;;;;;2.50;1.90;;;;;;;;;;5090090;28;20490;-78
2021/05/21 03:47:06;;;;;;;3.37;1.97;;;;;;;;;;5088702;28;20439;-78
2021/05/21 03:49:33;;;;;;;1.97;1.40;;;;;;;;;;5090447;28;20458;-80
2021/05/21 03:52:00;;;;;;;2.30;1.70;;;;;;;;;;5092063;28;20518;-79
2021/05/21 03:54:27;;;;;;;2.10;1.67;;;;;;;;;;5090959;28;20471;-78
2021/05/21 03:56:55;;;;;;;2.43;1.43;;;;;;;;;;5092580;28;20435;-78
2021/05/21 03:59:22;;;;;;;2.70;2.07;;;;;;;;;;5109431;28;20541;-78
2021/05/21 04:01:50;;;;;;;3.30;1.50;;;;;;;;;;5094510;28;20503;-78
2021/05/21 04:04:16;;;;;;;4.90;1.90;;;;;;;;;;5094378;28;20497;-80
2021/05/21 04:06:43;;;;;;;5.53;2.20;;;;;;;;;;5094455;28;20444;-77
2021/05/21 04:09:10;;;;;;;2.40;1.70;;;;;;;;;;5089768;28;20862;-80
2021/05/21 04:11:38;;;;;;;2.43;1.70;;;;;;;;;;5088709;28;20794;-80
2021/05/21 04:14:06;;;;;;;3.40;1.57;;;;;;;;;;5091837;28;20455;-79
2021/05/21 04:16:33;;;;;;;2.63;1.40;;;;;;;;;;5091906;28;20853;-81
2021/05/21 04:19:00;;;;;;;4.40;1.90;;;;;;;;;;5092348;28;20443;-79
2021/05/21 04:21:27;;;;;;;2.37;1.43;;;;;;;;;;5101395;28;20450;-80
2021/05/21 04:23:55;;;;;;;3.30;1.90;;;;;;;;;;5114318;28;20493;-79
2021/05/21 04:26:22;;;;;;;5.03;2.03;;;;;;;;;;5114437;28;20774;-77
2021/05/21 04:28:50;;;;;;;3.77;2.07;;;;;;;;;;5114141;28;20443;-80
2021/05/21 04:31:18;;;;;;;3.17;1.83;;;;;;;;;;5093622;28;20447;-78
2021/05/21 04:33:45;;;;;;;5.60;1.87;;;;;;;;;;5088247;28;20446;-80
2021/05/21 04:36:12;;;;;;;4.53;2.63;;;;;;;;;;5089875;28;20446;-79
2021/05/21 04:38:39;;;;;;;4.63;1.93;;;;;;;;;;5091312;28;20547;-80
2021/05/21 04:41:06;;;;;;;7.73;2.40;;;;;;;;;;5089591;28;20435;-79
2021/05/21 04:43:32;;;;;;;5.17;2.17;;;;;;;;;;5096908;28;20455;-80
2021/05/21 04:46:00;;;;;;;4.23;2.00;;;;;;;;;;5113824;28;20439;-78
2021/05/21 04:48:28;;;;;;;4.00;2.10;;;;;;;;;;5113876;28;20435;-78
2021/05/21 04:50:56;;;;;;;3.93;2.17;;;;;;;;;;5100390;27;20503;-76
2021/05/21 04:53:23;;;;;;;4.73;2.10;;;;;;;;;;5091482;28;20532;-78
2021/05/21 04:55:50;;;;;;;4.77;2.20;;;;;;;;;;5087256;28;20909;-79
2021/05/21 04:58:17;;;;;;;1.87;1.57;;;;;;;;;;5089644;28;20443;-79
2021/05/21 05:00:44;;;;;;;2.93;2.00;;;;;;;;;;5088985;28;20446;-81
2021/05/21 05:03:12;;;;;;;4.47;2.27;;;;;;;;;;5090386;28;20455;-77
2021/05/21 05:05:39;;;;;;;4.97;2.40;;;;;;;;;;5091135;28;20883;-78
2021/05/21 05:08:06;;;;;;;3.80;1.67;;;;;;;;;;5072624;28;20440;-78
2021/05/21 05:10:34;;;;;;;4.40;2.10;;;;;;;;;;5081657;28;20439;-78
2021/05/21 05:13:01;;;;;;;3.20;1.80;;;;;;;;;;5092573;28;20431;-79
2021/05/21 05:15:27;;;;;;;2.10;1.77;;;;;;;;;;5091813;28;20950;-79
2021/05/21 05:17:54;;;;;;;2.23;1.60;;;;;;;;;;5086867;28;21482;-80
2021/05/21 05:20:23;;;;;;;2.20;1.20;;;;;;;;;;5088447;28;20451;-81
2021/05/21 05:22:52;;;;;;;2.53;1.73;;;;;;;;;;5090170;28;20435;-79
2021/05/21 05:25:19;;;;;;;1.70;1.40;;;;;;;;;;5089187;28;20486;-77
2021/05/21 05:27:46;;;;;;;2.40;1.60;;;;;;;;;;5088282;28;20442;-78
2021/05/21 05:30:13;;;;;;;5.27;1.47;;;;;;;;;;5090709;28;20454;-77
2021/05/21 05:32:40;;;;;;;6.47;1.73;;;;;;;;;;5091367;28;20455;-75
2021/05/21 05:35:08;;;;;;;2.93;1.60;;;;;;;;;;5090788;28;20463;-76
2021/05/21 05:37:35;;;;;;;2.50;2.00;;;;;;;;;;5091584;28;20447;-77
2021/05/21 05:40:02;;;;;;;2.10;1.37;;;;;;;;;;5087759;28;20440;-82
2021/05/21 05:42:29;;;;;;;4.80;1.80;;;;;;;;;;5087990;28;20421;-79
2021/05/21 05:44:56;;;;;;;2.33;1.47;;;;;;;;;;5090139;28;20502;-77
2021/05/21 05:47:22;;;;;;;3.40;1.60;;;;;;;;;;5089819;28;20412;-78
2021/05/21 05:49:49;;;;;;;2.50;1.50;;;;;;;;;;5090492;28;20447;-76
2021/05/21 05:52:16;;;;;;;2.13;1.43;;;;;;;;;;5096945;28;20800;-78
2021/05/21 05:54:43;;;;;;;2.60;1.40;;;;;;;;;;5091871;28;20455;-78
2021/05/21 05:57:10;;;;;;;1.80;1.43;;;;;;;;;;5092477;28;20446;-77
2021/05/21 05:59:39;;;;;;;4.10;1.50;;;;;;;;;;5091991;28;20424;-77
2021/05/21 06:02:05;;;;;;;3.13;1.67;;;;;;;;;;5088205;28;20474;-76
2021/05/21 06:04:32;;;;;;;2.20;1.37;;;;;;;;;;5086229;28;20461;-77
2021/05/21 06:06:59;;;;;;;2.40;1.43;;;;;;;;;;5089013;28;20402;-79
2021/05/21 06:09:27;;;;;;;2.20;1.30;;;;;;;;;;5089266;28;21035;-77
2021/05/21 06:11:54;;;;;;;2.07;1.57;;;;;;;;;;5086743;28;20482;-77
2021/05/21 06:14:22;;;;;;;2.97;1.50;;;;;;;;;;5087335;28;20529;-76
2021/05/21 06:16:49;;;;;;;2.50;1.43;;;;;;;;;;5082617;28;21006;-76
2021/05/21 06:19:16;;;;;;;5.10;1.47;;;;;;;;;;5084218;28;20439;-76
2021/05/21 06:21:42;;;;;;;5.80;1.63;;;;;;;;;;5085393;28;20422;-77
2021/05/21 06:24:10;;;;;;;3.13;1.63;;;;;;;;;;5083937;28;20487;-77
2021/05/21 06:26:40;;;;;;;3.33;1.60;;;;;;;;;;5087131;28;20438;-79
2021/05/21 06:29:07;;;;;;;2.00;1.50;;;;;;;;;;5087275;28;20437;-79
2021/05/21 06:31:35;;;;;;;2.80;1.50;;;;;;;;;;5083877;28;20414;-80
2021/05/21 06:34:02;;;;;;;2.17;1.50;;;;;;;;;;5085045;28;20453;-78
2021/05/21 06:36:28;;;;;;;3.90;1.77;;;;;;;;;;5087697;28;20849;-77
2021/05/21 06:38:56;;;;;;;3.97;1.60;;;;;;;;;;5086311;28;20418;-79
2021/05/21 06:41:22;;;;;;;3.47;1.63;;;;;;;;;;5088037;28;20934;-78
2021/05/21 06:43:49;;;;;;;2.60;1.70;;;;;;;;;;5089035;28;20452;-78
2021/05/21 06:46:16;;;;;;;2.07;1.30;;;;;;;;;;5085046;28;20499;-78
2021/05/21 06:48:44;;;;;;;4.20;1.80;;;;;;;;;;5087498;28;20447;-79
2021/05/21 06:51:11;;;;;;;5.00;1.97;;;;;;;;;;5087176;28;20473;-78
2021/05/21 06:53:37;;;;;;;3.33;1.50;;;;;;;;;;5087962;28;20437;-79
2021/05/21 06:56:04;;;;;;;2.37;1.50;;;;;;;;;;5088265;28;20455;-77
2021/05/21 06:58:31;;;;;;;2.03;1.43;;;;;;;;;;5090169;28;20447;-78
2021/05/21 07:00:58;;;;;;;3.63;1.77;;;;;;;;;;5089811;28;20427;-78
2021/05/21 07:03:28;;;;;;;5.83;1.73;;;;;;;;;;5089503;28;20474;-76
2021/05/21 07:05:56;;;;;;;3.50;1.70;;;;;;;;;;5085678;28;20514;-74
2021/05/21 07:08:23;;;;;;;2.33;1.53;;;;;;;;;;5083940;28;20905;-78
2021/05/21 07:10:50;;;;;;;2.40;1.50;;;;;;;;;;5086496;28;20501;-75
2021/05/21 07:13:18;;;;;;;3.80;1.87;;;;;;;;;;5087250;28;20443;-78
2021/05/21 07:15:46;;;;;;;4.63;1.40;;;;;;;;;;5087518;28;20521;-76
2021/05/21 07:18:13;;;;;;;5.70;2.03;;;;;;;;;;5088425;28;20542;-76
2021/05/21 07:20:41;;;;;;;5.13;1.80;;;;;;;;;;5093564;28;20443;-79
2021/05/21 07:23:09;;;;;;;3.07;1.87;;;;;;;;;;5095784;28;21011;-78
2021/05/21 07:25:38;;;;;;;2.73;1.83;;;;;;;;;;5093825;28;20482;-79
2021/05/21 07:28:05;;;;;;;5.97;2.23;;;;;;;;;;5092179;28;20465;-78
2021/05/21 07:30:32;;;;;;;5.37;1.40;;;;;;;;;;5089304;28;20434;-78
2021/05/21 07:32:59;;;;;;;4.20;2.10;;;;;;;;;;5092399;28;20984;-77
2021/05/21 07:35:26;;;;;;;3.93;1.80;;;;;;;;;;5092551;28;20497;-77
2021/05/21 07:37:53;;;;;;;4.37;1.93;;;;;;;;;;5092138;28;20470;-78
2021/05/21 07:40:21;;;;;;;3.93;1.67;;;;;;;;;;5095077;28;20438;-77
2021/05/21 07:42:48;;;;;;;6.30;2.63;;;;;;;;;;5113872;28;20533;-77
2021/05/21 07:45:14;;;;;;;5.07;1.87;;;;;;;;;;5113609;28;20490;-79
2021/05/21 07:47:41;;;;;;;6.37;2.23;;;;;;;;;;5113597;28;20502;-77
2021/05/21 07:50:09;;;;;;;3.17;1.60;;;;;;;;;;5101113;28;20439;-78
2021/05/21 07:52:36;;;;;;;2.77;1.60;;;;;;;;;;5088124;28;20412;-78
2021/05/21 07:55:05;;;;;;;2.50;1.87;;;;;;;;;;5088202;28;20455;-74
2021/05/21 07:57:32;;;;;;;5.80;1.90;;;;;;;;;;5090844;28;20803;-78
2021/05/21 07:59:59;;;;;;;3.30;1.60;;;;;;;;;;5090846;28;20481;-80
2021/05/21 08:02:26;;;;;;;3.27;1.60;;;;;;;;;;5090905;28;20463;-76
2021/05/21 08:04:53;;;;;;;3.50;1.93;;;;;;;;;;5111441;28;20487;-77
2021/05/21 08:07:20;;;;;;;4.83;1.40;;;;;;;;;;5087730;28;20933;-79
2021/05/21 08:09:50;;;;;;;1.40;1.20;;;;;;;;;;5089024;28;20427;-78
2021/05/21 08:12:17;;;;;;;4.00;1.73;;;;;;;;;;5090908;28;20451;-77
2021/05/21 08:14:45;;;;;;;5.90;2.40;;;;;;;;;;5090295;28;20470;-78
2021/05/21 08:17:11;;;;;;;5.27;2.03;;;;;;;;;;5089930;28;21005;-79
2021/05/21 08:19:38;;;;;;;4.40;1.40;;;;;;;;;;5092249;28;21002;-77
2021/05/21 08:22:05;;;;;;;5.27;2.10;;;;;;;;;;5092144;28;20442;-78
2021/05/21 08:24:32;;;;;;;11.87;3.30;;;;;;;;;;5091380;28;20512;-78
2021/05/21 08:26:59;;;;;;;15.83;3.47;;;;;;;;;;5088744;28;20522;-77
2021/05/21 08:29:26;;;;;;;5.27;1.97;;;;;;;;;;5086015;28;20534;-78
2021/05/21 08:31:53;;;;;;;9.23;2.63;;;;;;;;;;5088746;28;20438;-76
2021/05/21 08:34:20;;;;;;;3.10;1.80;;;;;;;;;;5075295;28;20806;-78
2021/05/21 08:36:48;;;;;;;5.77;2.23;;;;;;;;;;5082629;28;20987;-82
2021/05/21 08:39:14;;;;;;;4.43;2.33;;;;;;;;;;5082766;28;20452;-78
2021/05/21 08:41:44;;;;;;;5.03;1.93;;;;;;;;;;5080333;28;20446;-79
2021/05/21 08:44:11;;;;;;;7.43;2.10;;;;;;;;;;5092396;28;20479;-78
2021/05/21 08:46:38;;;;;;;8.17;2.10;;;;;;;;;;5074842;28;20440;-77
2021/05/21 08:49:06;;;;;;;6.80;1.90;;;;;;;;;;5091652;28;20851;-76
2021/05/21 08:51:33;;;;;;;4.00;2.27;;;;;;;;;;5087526;28;20578;-77
2021/05/21 08:54:00;;;;;;;5.57;2.20;;;;;;;;;;5087225;28;20483;-77
2021/05/21 08:56:27;;;;;;;5.03;2.00;;;;;;;;;;5089269;28;20466;-79
2021/05/21 08:58:55;;;;;;;3.90;2.20;;;;;;;;;;5090406;28;20443;-77
2021/05/21 09:01:25;;;;;;;3.33;1.83;;;;;;;;;;5090137;28;20451;-79
2021/05/21 09:03:59;;;;;;;6.67;1.80;;;;;;;;;;5089937;28;20479;-77
2021/05/21 09:06:28;;;;;;;4.50;1.90;;;;;;;;;;5087166;28;20813;-76
2021/05/21 09:08:55;;;;;;;3.77;1.90;;;;;;;;;;5090027;28;20458;-80
2021/05/21 09:11:23;;;;;;;9.90;2.43;;;;;;;;;;5090242;28;20949;-76
2021/05/21 09:13:52;;;;;;;8.07;2.27;;;;;;;;;;5091691;28;20535;-76
2021/05/21 09:16:20;;;;;;;10.23;2.33;;;;;;;;;;5090994;28;20453;-78
2021/05/21 09:19:01;;;;;;;4.97;2.10;;;;;;;;;;5091852;28;20450;-77
2021/05/21 09:21:46;;;;;;;6.60;1.80;;;;;;;;;;5089672;28;20919;-77
2021/05/21 09:24:13;;;;;;;10.47;2.20;;;;;;;;;;5074549;28;20493;-77
2021/05/21 09:26:41;;;;;;;4.97;1.70;;;;;;;;;;5089003;28;20474;-77
2021/05/21 09:29:08;;;;;;;3.37;1.73;;;;;;;;;;5087023;28;20799;-78
2021/05/21 09:31:42;;;;;;;6.53;2.70;;;;;;;;;;5089298;28;20940;-77
2021/05/21 09:34:09;;;;;;;6.27;2.00;;;;;;;;;;5087572;28;20732;-80
2021/05/21 09:36:38;;;;;;;5.90;1.90;;;;;;;;;;5088532;28;20990;-79
2021/05/21 09:39:07;;;;;;;5.10;1.80;;;;;;;;;;5085236;28;20831;-76
2021/05/21 09:41:44;;;;;;;5.53;1.90;;;;;;;;;;5087402;28;20420;-81
2021/05/21 09:44:11;;;;;;;6.70;2.23;;;;;;;;;;5084801;28;20978;-80
2021/05/21 09:46:39;;;;;;;3.63;1.77;;;;;;;;;;5087830;28;20942;-79
2021/05/21 09:49:20;;;;;;;6.23;1.90;;;;;;;;;;5087771;28;20537;-82
2021/05/21 09:51:52;;;;;;;7.03;1.70;;;;;;;;;;5087600;28;20576;-80
2021/05/21 09:54:19;;;;;;;7.53;2.10;;;;;;;;;;5090103;28;20475;-80
2021/05/21 09:56:59;;;;;;;4.40;1.70;;;;;;;;;;5091067;28;20435;-80
2021/05/21 09:59:37;;;;;;;5.73;2.03;;;;;;;;;;5090929;28;20530;-79
2021/05/21 10:02:18;;;;;;;5.67;2.67;;;;;;;;;;5089038;28;20814;-79
2021/05/21 10:04:45;;;;;;;6.07;2.20;;;;;;;;;;5087229;28;20485;-77
2021/05/21 10:07:12;;;;;;;7.10;2.40;;;;;;;;;;5086311;28;20781;-78
2021/05/21 10:09:39;;;;;;;5.23;2.10;;;;;;;;;;5089785;28;20435;-77
2021/05/21 10:12:07;;;;;;;4.90;2.43;;;;;;;;;;5090179;28;20458;-78
2021/05/21 10:14:34;;;;;;;5.30;2.00;;;;;;;;;;5089244;28;20812;-79
2021/05/21 10:17:01;;;;;;;4.50;2.30;;;;;;;;;;5090122;28;20446;-77
2021/05/21 10:19:29;;;;;;;4.73;2.40;;;;;;;;;;5090200;28;20520;-77
2021/05/21 10:21:56;;;;;;;4.70;1.97;;;;;;;;;;5090482;28;20439;-77
2021/05/21 10:24:25;;;;;;;7.93;3.20;;;;;;;;;;5090395;28;20578;-78
2021/05/21 10:26:54;;;;;;;4.30;2.00;;;;;;;;;;5088323;28;21075;-75
2021/05/21 10:29:22;;;;;;;7.03;1.73;;;;;;;;;;5083052;28;20439;-78
2021/05/21 10:31:50;;;;;;;5.27;1.90;;;;;;;;;;5088372;28;20439;-81
2021/05/21 10:34:18;;;;;;;7.60;2.20;;;;;;;;;;5088459;28;20467;-78
2021/05/21 10:36:45;;;;;;;7.73;2.10;;;;;;;;;;5087363;28;20443;-77
2021/05/21 10:39:13;;;;;;;7.93;2.60;;;;;;;;;;5096510;28;20481;-78
2021/05/21 10:41:50;;;;;;;3.60;1.80;;;;;;;;;;5109497;28;20438;-79
2021/05/21 10:44:19;;;;;;;5.83;2.13;;;;;;;;;;5083207;28;20975;-80
2021/05/21 10:46:48;;;;;;;9.20;2.13;;;;;;;;;;5080963;28;20436;-78
2021/05/21 10:49:22;;;;;;;3.97;1.77;;;;;;;;;;5083563;28;20440;-77
2021/05/21 10:51:50;;;;;;;3.63;1.77;;;;;;;;;;5083028;28;20893;-78
2021/05/21 10:54:25;;;;;;;6.57;2.10;;;;;;;;;;5083197;28;20546;-79
2021/05/21 10:56:55;;;;;;;3.40;1.93;;;;;;;;;;5093350;28;20441;-77
2021/05/21 10:59:22;;;;;;;5.37;2.23;;;;;;;;;;5094429;28;21035;-80
2021/05/21 11:01:49;;;;;;;4.03;1.50;;;;;;;;;;5081266;28;20433;-81
2021/05/21 11:04:20;;;;;;;9.10;2.60;;;;;;;;;;5084512;28;20562;-81
2021/05/21 11:06:51;;;;;;;5.93;2.03;;;;;;;;;;5083084;28;20588;-78
2021/05/21 11:09:19;;;;;;;3.43;1.63;;;;;;;;;;5082927;28;20809;-77
2021/05/21 11:11:47;;;;;;;9.80;2.37;;;;;;;;;;5091108;28;20470;-79
2021/05/21 11:14:23;;;;;;;6.10;2.30;;;;;;;;;;5091843;28;20482;-79
2021/05/21 11:16:51;;;;;;;5.37;2.13;;;;;;;;;;5083185;28;20434;-80
2021/05/21 11:19:20;;;;;;;4.93;2.20;;;;;;;;;;5087049;28;20435;-78
2021/05/21 11:21:47;;;;;;;10.37;2.53;;;;;;;;;;5085478;28;20481;-81
2021/05/21 11:24:14;;;;;;;5.93;2.40;;;;;;;;;;5086649;28;20455;-81
2021/05/21 11:26:42;;;;;;;6.53;2.07;;;;;;;;;;5085967;28;20455;-79
2021/05/21 11:29:09;;;;;;;5.40;2.13;;;;;;;;;;5083216;28;20431;-78
2021/05/21 11:31:37;;;;;;;5.17;1.93;;;;;;;;;;5085481;28;20798;-77
2021/05/21 11:34:08;;;;;;;7.60;1.90;;;;;;;;;;5085211;28;20454;-80
2021/05/21 11:36:35;;;;;;;3.90;2.03;;;;;;;;;;5084835;28;20443;-81
2021/05/21 11:39:03;;;;;;;3.67;2.10;;;;;;;;;;5090073;28;20446;-80
2021/05/21 11:41:31;;;;;;;5.20;2.17;;;;;;;;;;5101447;28;20799;-81
2021/05/21 11:44:02;;;;;;;7.23;2.00;;;;;;;;;;5083537;28;20964;-81
2021/05/21 11:46:29;;;;;;;5.13;2.17;;;;;;;;;;5086924;28;20678;-79
2021/05/21 11:48:56;;;;;;;7.00;1.90;;;;;;;;;;5086766;28;20526;-79
2021/05/21 11:51:24;;;;;;;3.57;1.77;;;;;;;;;;5086580;28;20458;-79
2021/05/21 11:53:52;;;;;;;5.37;2.40;;;;;;;;;;5088701;28;20446;-77
2021/05/21 11:56:27;;;;;;;6.23;2.37;;;;;;;;;;5087575;28;20436;-79
2021/05/21 11:58:57;;;;;;;7.27;2.13;;;;;;;;;;5084762;28;20439;-81
2021/05/21 12:01:24;;;;;;;3.93;1.90;;;;;;;;;;5096765;28;20441;-79
2021/05/21 12:03:51;;;;;;;4.13;2.23;;;;;;;;;;5087745;28;20459;-79
2021/05/21 12:06:18;;;;;;;5.10;2.37;;;;;;;;;;5088586;28;20486;-81
2021/05/21 12:08:47;;;;;;;4.37;2.07;;;;;;;;;;5092613;28;20481;-79
2021/05/21 12:11:14;;;;;;;5.00;2.07;;;;;;;;;;5093316;28;20455;-81
2021/05/21 12:13:41;;;;;;;4.27;1.70;;;;;;;;;;5092511;28;20435;-78
2021/05/21 12:16:11;;;;;;;3.40;1.87;;;;;;;;;;5107998;28;20439;-78
2021/05/21 12:18:38;;;;;;;5.63;2.10;;;;;;;;;;5095985;28;22097;-78
2021/05/21 12:21:05;;;;;;;6.80;1.87;;;;;;;;;;5088232;28;20435;-77
2021/05/21 12:23:35;;;;;;;4.03;1.83;;;;;;;;;;5091102;28;20492;-78
2021/05/21 12:26:03;;;;;;;8.43;2.43;;;;;;;;;;5090816;28;20574;-75
2021/05/21 12:28:30;;;;;;;5.90;2.27;;;;;;;;;;5092568;28;20479;-75
2021/05/21 12:31:01;;;;;;;6.80;1.87;;;;;;;;;;5107691;28;20972;-79
2021/05/21 12:33:28;;;;;;;4.27;2.43;;;;;;;;;;5093208;28;20443;-78
2021/05/21 12:35:55;;;;;;;4.67;1.93;;;;;;;;;;5093435;28;20467;-79
2021/05/21 12:38:29;;;;;;;7.77;2.47;;;;;;;;;;5093902;28;20428;-79
2021/05/21 12:40:57;;;;;;;9.60;2.87;;;;;;;;;;5090433;28;20485;-77
2021/05/21 12:43:25;;;;;;;5.50;2.23;;;;;;;;;;5086458;28;20431;-78
2021/05/21 12:45:54;;;;;;;4.93;2.00;;;;;;;;;;5100632;28;20470;-81
2021/05/21 12:48:21;;;;;;;3.27;2.00;;;;;;;;;;5097791;28;20652;-83
2021/05/21 12:50:47;;;;;;;7.30;2.57;;;;;;;;;;5091590;28;20439;-78
2021/05/21 12:53:14;;;;;;;7.27;2.13;;;;;;;;;;5091640;28;20447;-83
2021/05/21 12:55:45;;;;;;;4.90;2.00;;;;;;;;;;5092725;28;20455;-80
2021/05/21 12:58:17;;;;;;;4.93;1.77;;;;;;;;;;5093686;28;20461;-83
2021/05/21 13:00:44;;;;;;;9.40;2.43;;;;;;;;;;5082632;28;20439;-80
2021/05/21 13:03:10;;;;;;;6.73;2.50;;;;;;;;;;5092297;28;20471;-79
2021/05/21 13:05:40;;;;;;;6.37;2.57;;;;;;;;;;5087553;28;20479;-82
2021/05/21 13:08:07;;;;;;;7.40;2.00;;;;;;;;;;5089540;28;20427;-81
2021/05/21 13:10:38;;;;;;;6.47;2.23;;;;;;;;;;5091386;28;20436;-82
2021/05/21 13:13:05;;;;;;;7.77;2.37;;;;;;;;;;5090249;28;20874;-81
2021/05/21 13:15:38;;;;;;;6.20;2.43;;;;;;;;;;5091527;28;20462;-81
2021/05/21 13:18:05;;;;;;;5.07;2.13;;;;;;;;;;5090979;28;20439;-79
2021/05/21 13:20:32;;;;;;;4.57;1.90;;;;;;;;;;5092204;28;20522;-80
2021/05/21 13:23:00;;;;;;;6.40;2.10;;;;;;;;;;5092057;28;20501;-77
2021/05/21 13:25:29;;;;;;;8.73;2.13;;;;;;;;;;5092863;28;20513;-80
2021/05/21 13:27:58;;;;;;;4.33;2.27;;;;;;;;;;5086859;28;20447;-79
2021/05/21 13:30:25;;;;;;;4.60;2.07;;;;;;;;;;5087648;28;20439;-81
2021/05/21 13:32:53;;;;;;;8.00;2.40;;;;;;;;;;5089318;28;20443;-84
2021/05/21 13:35:20;;;;;;;5.67;2.30;;;;;;;;;;5090413;28;20459;-80
2021/05/21 13:37:49;;;;;;;7.63;2.43;;;;;;;;;;5090815;28;20444;-81
2021/05/21 13:40:16;;;;;;;6.50;2.50;;;;;;;;;;5092432;28;20455;-81
2021/05/21 13:42:43;;;;;;;5.90;2.57;;;;;;;;;;5092972;28;20456;-84
2021/05/21 13:45:11;;;;;;;5.63;2.50;;;;;;;;;;5092168;28;20485;-83
2021/05/21 13:47:38;;;;;;;6.07;2.43;;;;;;;;;;5092475;28;20439;-81
2021/05/21 13:50:07;;;;;;;6.20;2.20;;;;;;;;;;5087896;28;20847;-80
2021/05/21 13:52:33;;;;;;;5.10;2.20;;;;;;;;;;5087206;28;20488;-85
2021/05/21 13:55:01;;;;;;;5.50;1.90;;;;;;;;;;5090290;28;20462;-77
2021/05/21 13:57:27;;;;;;;10.67;2.30;;;;;;;;;;5089009;28;20447;-79
2021/05/21 13:59:54;;;;;;;6.00;2.20;;;;;;;;;;5090154;28;20799;-79
2021/05/21 14:02:21;;;;;;;6.50;1.70;;;;;;;;;;5102900;28;20451;-80
2021/05/21 14:04:48;;;;;;;6.17;2.53;;;;;;;;;;5112580;28;20500;-79
2021/05/21 14:07:15;;;;;;;6.93;1.80;;;;;;;;;;5113003;28;20446;-80
2021/05/21 14:09:42;;;;;;;4.87;2.00;;;;;;;;;;5112949;28;20438;-80
2021/05/21 14:12:11;;;;;;;5.87;2.10;;;;;;;;;;5092100;28;20427;-79
2021/05/21 14:14:38;;;;;;;5.20;1.90;;;;;;;;;;5087452;28;20455;-82
2021/05/21 14:17:05;;;;;;;5.00;1.90;;;;;;;;;;5089434;28;20496;-78
2021/05/21 14:19:32;;;;;;;8.00;2.73;;;;;;;;;;5089931;28;20936;-82
2021/05/21 14:21:59;;;;;;;4.37;2.13;;;;;;;;;;5090284;28;20447;-81
2021/05/21 14:24:27;;;;;;;7.80;2.13;;;;;;;;;;5090488;28;20482;-79
2021/05/21 14:26:54;;;;;;;4.80;2.50;;;;;;;;;;5092065;28;20477;-79
2021/05/21 14:29:21;;;;;;;5.23;1.90;;;;;;;;;;5092873;28;20447;-78
2021/05/21 14:31:48;;;;;;;5.70;2.13;;;;;;;;;;5092119;28;20439;-81
2021/05/21 14:34:19;;;;;;;7.07;1.90;;;;;;;;;;5086624;28;20447;-79
2021/05/21 14:36:46;;;;;;;7.60;1.93;;;;;;;;;;5086155;28;20424;-79
2021/05/21 14:39:13;;;;;;;4.30;2.17;;;;;;;;;;5089170;28;20443;-78
2021/05/21 14:41:41;;;;;;;5.70;2.60;;;;;;;;;;5088461;28;20443;-78
2021/05/21 14:44:08;;;;;;;5.60;2.33;;;;;;;;;;5089694;28;20917;-78
2021/05/21 14:46:36;;;;;;;5.93;2.00;;;;;;;;;;5099384;28;20507;-78